sensor_id;sensor_type;location;lat;lon;timestamp;P1;durP1;ratioP1;P2;durP2;ratioP2
65825;SDS011;52586;-43.152;172.732;2022-10-23T00:02:25;1.55;;;0.57;;
65825;SDS011;52586;-43.152;172.732;2022-10-23T00:04:58;1.65;;;0.50;;
65825;SDS011;52586;-43.152;172.732;2022-10-23T00:07:29;0.85;;;0.50;;
65825;SDS011;52586;-43.152;172.732;2022-10-23T00:10:00;1.20;;;0.60;;
65825;SDS011;52586;-43.152;172.732;2022-10-23T00:12:31;0.85;;;0.40;;
65825;SDS011;52586;-43.152;172.732;2022-10-23T00:15:03;0.93;;;0.50;;
65825;SDS011;52586;-43.152;172.732;2022-10-23T00:17:34;1.80;;;0.40;;
65825;SDS011;52586;-43.152;172.732;2022-10-23T00:20:05;0.40;;;0.38;;
65825;SDS011;52586;-43.152;172.732;2022-10-23T00:22:37;1.75;;;0.50;;
65825;SDS011;52586;-43.152;172.732;2022-10-23T00:25:07;1.85;;;0.60;;
65825;SDS011;52586;-43.152;172.732;2022-10-23T00:27:38;2.10;;;0.60;;
65825;SDS011;52586;-43.152;172.732;2022-10-23T00:30:11;0.73;;;0.47;;
65825;SDS011;52586;-43.152;172.732;2022-10-23T00:32:42;1.85;;;0.50;;
65825;SDS011;52586;-43.152;172.732;2022-10-23T00:35:13;0.60;;;0.45;;
65825;SDS011;52586;-43.152;172.732;2022-10-23T00:37:43;2.15;;;0.50;;
65825;SDS011;52586;-43.152;172.732;2022-10-23T00:40:14;0.55;;;0.40;;
65825;SDS011;52586;-43.152;172.732;2022-10-23T00:42:45;1.45;;;0.50;;
65825;SDS011;52586;-43.152;172.732;2022-10-23T00:45:22;1.23;;;0.60;;
65825;SDS011;52586;-43.152;172.732;2022-10-23T00:47:56;0.47;;;0.32;;
65825;SDS011;52586;-43.152;172.732;2022-10-23T00:50:28;0.65;;;0.55;;
65825;SDS011;52586;-43.152;172.732;2022-10-23T00:53:00;0.55;;;0.45;;
65825;SDS011;52586;-43.152;172.732;2022-10-23T00:55:32;0.82;;;0.30;;
65825;SDS011;52586;-43.152;172.732;2022-10-23T00:58:03;0.70;;;0.38;;
65825;SDS011;52586;-43.152;172.732;2022-10-23T01:00:42;1.13;;;0.57;;
65825;SDS011;52586;-43.152;172.732;2022-10-23T01:03:14;0.73;;;0.43;;
65825;SDS011;52586;-43.152;172.732;2022-10-23T01:05:48;0.32;;;0.30;;
65825;SDS011;52586;-43.152;172.732;2022-10-23T01:08:23;1.05;;;0.38;;
65825;SDS011;52586;-43.152;172.732;2022-10-23T01:11:01;0.45;;;0.43;;
65825;SDS011;52586;-43.152;172.732;2022-10-23T01:13:39;1.00;;;0.43;;
65825;SDS011;52586;-43.152;172.732;2022-10-23T01:16:19;0.77;;;0.45;;
65825;SDS011;52586;-43.152;172.732;2022-10-23T01:18:55;0.50;;;0.40;;
65825;SDS011;52586;-43.152;172.732;2022-10-23T01:21:33;1.48;;;0.60;;
65825;SDS011;52586;-43.152;172.732;2022-10-23T01:24:16;2.08;;;1.10;;
65825;SDS011;52586;-43.152;172.732;2022-10-23T01:27:21;1.67;;;1.10;;
65825;SDS011;52586;-43.152;172.732;2022-10-23T01:30:01;2.70;;;1.00;;
65825;SDS011;52586;-43.152;172.732;2022-10-23T01:32:34;1.45;;;1.08;;
65825;SDS011;52586;-43.152;172.732;2022-10-23T01:35:13;1.13;;;0.95;;
65825;SDS011;52586;-43.152;172.732;2022-10-23T01:37:52;2.20;;;1.00;;
65825;SDS011;52586;-43.152;172.732;2022-10-23T01:40:28;2.10;;;1.15;;
65825;SDS011;52586;-43.152;172.732;2022-10-23T01:43:04;1.48;;;1.10;;
65825;SDS011;52586;-43.152;172.732;2022-10-23T01:45:42;1.48;;;0.90;;
65825;SDS011;52586;-43.152;172.732;2022-10-23T01:48:16;1.17;;;0.77;;
65825;SDS011;52586;-43.152;172.732;2022-10-23T01:50:50;1.33;;;0.98;;
65825;SDS011;52586;-43.152;172.732;2022-10-23T01:53:23;1.13;;;0.80;;
65825;SDS011;52586;-43.152;172.732;2022-10-23T01:55:57;3.10;;;1.00;;
65825;SDS011;52586;-43.152;172.732;2022-10-23T01:58:31;1.92;;;0.88;;
65825;SDS011;52586;-43.152;172.732;2022-10-23T02:01:04;1.52;;;0.80;;
65825;SDS011;52586;-43.152;172.732;2022-10-23T02:03:36;0.90;;;0.75;;
65825;SDS011;52586;-43.152;172.732;2022-10-23T02:06:09;1.20;;;0.70;;
65825;SDS011;52586;-43.152;172.732;2022-10-23T02:08:40;1.30;;;0.70;;
65825;SDS011;52586;-43.152;172.732;2022-10-23T02:11:12;1.35;;;0.88;;
65825;SDS011;52586;-43.152;172.732;2022-10-23T02:13:46;3.08;;;0.80;;
65825;SDS011;52586;-43.152;172.732;2022-10-23T02:16:25;1.50;;;0.63;;
65825;SDS011;52586;-43.152;172.732;2022-10-23T02:19:05;1.27;;;0.60;;
65825;SDS011;52586;-43.152;172.732;2022-10-23T02:21:43;1.55;;;0.57;;
65825;SDS011;52586;-43.152;172.732;2022-10-23T02:24:19;0.47;;;0.47;;
65825;SDS011;52586;-43.152;172.732;2022-10-23T02:26:54;1.95;;;0.82;;
65825;SDS011;52586;-43.152;172.732;2022-10-23T02:29:29;3.45;;;0.70;;
65825;SDS011;52586;-43.152;172.732;2022-10-23T02:32:04;1.23;;;0.70;;
65825;SDS011;52586;-43.152;172.732;2022-10-23T02:34:36;1.70;;;0.80;;
65825;SDS011;52586;-43.152;172.732;2022-10-23T02:37:07;2.10;;;0.70;;
65825;SDS011;52586;-43.152;172.732;2022-10-23T02:39:38;0.90;;;0.60;;
65825;SDS011;52586;-43.152;172.732;2022-10-23T02:42:09;1.65;;;0.70;;
65825;SDS011;52586;-43.152;172.732;2022-10-23T02:44:49;1.98;;;0.90;;
65825;SDS011;52586;-43.152;172.732;2022-10-23T02:47:35;1.83;;;0.73;;
65825;SDS011;52586;-43.152;172.732;2022-10-23T02:50:16;2.00;;;0.98;;
65825;SDS011;52586;-43.152;172.732;2022-10-23T02:52:56;2.58;;;1.02;;
65825;SDS011;52586;-43.152;172.732;2022-10-23T02:55:35;2.63;;;0.75;;
65825;SDS011;52586;-43.152;172.732;2022-10-23T02:58:15;4.05;;;0.70;;
65825;SDS011;52586;-43.152;172.732;2022-10-23T03:00:53;0.77;;;0.60;;
65825;SDS011;52586;-43.152;172.732;2022-10-23T03:03:29;1.75;;;0.70;;
65825;SDS011;52586;-43.152;172.732;2022-10-23T03:06:02;3.15;;;0.80;;
65825;SDS011;52586;-43.152;172.732;2022-10-23T03:08:40;1.92;;;0.80;;
65825;SDS011;52586;-43.152;172.732;2022-10-23T03:11:11;4.10;;;0.82;;
65825;SDS011;52586;-43.152;172.732;2022-10-23T03:13:42;2.72;;;0.90;;
65825;SDS011;52586;-43.152;172.732;2022-10-23T03:16:14;1.90;;;0.85;;
65825;SDS011;52586;-43.152;172.732;2022-10-23T03:18:45;2.65;;;0.70;;
65825;SDS011;52586;-43.152;172.732;2022-10-23T03:21:15;2.03;;;0.93;;
65825;SDS011;52586;-43.152;172.732;2022-10-23T03:23:46;2.17;;;0.70;;
65825;SDS011;52586;-43.152;172.732;2022-10-23T03:26:17;1.92;;;0.70;;
65825;SDS011;52586;-43.152;172.732;2022-10-23T03:28:47;2.72;;;0.73;;
65825;SDS011;52586;-43.152;172.732;2022-10-23T03:31:20;2.22;;;0.68;;
65825;SDS011;52586;-43.152;172.732;2022-10-23T03:33:50;2.67;;;0.80;;
65825;SDS011;52586;-43.152;172.732;2022-10-23T03:36:21;3.08;;;0.70;;
65825;SDS011;52586;-43.152;172.732;2022-10-23T03:38:52;2.10;;;0.60;;
65825;SDS011;52586;-43.152;172.732;2022-10-23T03:41:25;3.33;;;0.90;;
65825;SDS011;52586;-43.152;172.732;2022-10-23T03:43:55;2.85;;;0.73;;
65825;SDS011;52586;-43.152;172.732;2022-10-23T03:46:28;1.20;;;0.68;;
65825;SDS011;52586;-43.152;172.732;2022-10-23T03:48:59;1.40;;;0.60;;
65825;SDS011;52586;-43.152;172.732;2022-10-23T03:51:29;1.95;;;0.60;;
65825;SDS011;52586;-43.152;172.732;2022-10-23T03:54:00;9.07;;;1.17;;
65825;SDS011;52586;-43.152;172.732;2022-10-23T03:56:30;11.13;;;1.40;;
65825;SDS011;52586;-43.152;172.732;2022-10-23T03:59:01;8.20;;;1.15;;
65825;SDS011;52586;-43.152;172.732;2022-10-23T04:01:34;4.47;;;0.93;;
65825;SDS011;52586;-43.152;172.732;2022-10-23T04:04:04;6.00;;;1.10;;
65825;SDS011;52586;-43.152;172.732;2022-10-23T04:06:35;5.93;;;0.90;;
65825;SDS011;52586;-43.152;172.732;2022-10-23T04:09:06;3.03;;;1.30;;
65825;SDS011;52586;-43.152;172.732;2022-10-23T04:11:36;3.25;;;0.90;;
65825;SDS011;52586;-43.152;172.732;2022-10-23T04:14:08;3.80;;;0.88;;
65825;SDS011;52586;-43.152;172.732;2022-10-23T04:16:42;5.90;;;1.45;;
65825;SDS011;52586;-43.152;172.732;2022-10-23T04:19:12;2.83;;;0.90;;
65825;SDS011;52586;-43.152;172.732;2022-10-23T04:21:43;3.13;;;1.20;;
65825;SDS011;52586;-43.152;172.732;2022-10-23T04:24:14;3.60;;;0.95;;
65825;SDS011;52586;-43.152;172.732;2022-10-23T04:26:45;3.45;;;1.15;;
65825;SDS011;52586;-43.152;172.732;2022-10-23T04:29:15;3.58;;;1.13;;
65825;SDS011;52586;-43.152;172.732;2022-10-23T04:31:49;2.85;;;1.10;;
65825;SDS011;52586;-43.152;172.732;2022-10-23T04:34:20;3.08;;;1.30;;
65825;SDS011;52586;-43.152;172.732;2022-10-23T04:36:51;4.97;;;1.55;;
65825;SDS011;52586;-43.152;172.732;2022-10-23T04:39:21;4.60;;;1.40;;
65825;SDS011;52586;-43.152;172.732;2022-10-23T04:41:52;2.00;;;1.00;;
65825;SDS011;52586;-43.152;172.732;2022-10-23T04:44:25;4.20;;;1.15;;
65825;SDS011;52586;-43.152;172.732;2022-10-23T04:46:57;3.60;;;1.35;;
65825;SDS011;52586;-43.152;172.732;2022-10-23T04:49:28;4.10;;;1.08;;
65825;SDS011;52586;-43.152;172.732;2022-10-23T04:51:59;1.77;;;0.95;;
65825;SDS011;52586;-43.152;172.732;2022-10-23T04:54:34;3.08;;;1.10;;
65825;SDS011;52586;-43.152;172.732;2022-10-23T04:57:05;2.38;;;0.98;;
65825;SDS011;52586;-43.152;172.732;2022-10-23T04:59:37;3.20;;;1.15;;
65825;SDS011;52586;-43.152;172.732;2022-10-23T05:02:10;2.75;;;1.20;;
65825;SDS011;52586;-43.152;172.732;2022-10-23T05:04:40;1.83;;;1.00;;
65825;SDS011;52586;-43.152;172.732;2022-10-23T05:07:11;3.45;;;1.10;;
65825;SDS011;52586;-43.152;172.732;2022-10-23T05:09:41;2.80;;;1.00;;
65825;SDS011;52586;-43.152;172.732;2022-10-23T05:12:12;3.90;;;1.02;;
65825;SDS011;52586;-43.152;172.732;2022-10-23T05:14:43;3.50;;;0.93;;
65825;SDS011;52586;-43.152;172.732;2022-10-23T05:17:16;1.85;;;1.10;;
65825;SDS011;52586;-43.152;172.732;2022-10-23T05:19:50;1.73;;;0.90;;
65825;SDS011;52586;-43.152;172.732;2022-10-23T05:22:21;3.05;;;0.98;;
65825;SDS011;52586;-43.152;172.732;2022-10-23T05:24:55;3.05;;;1.10;;
65825;SDS011;52586;-43.152;172.732;2022-10-23T05:27:27;1.88;;;0.68;;
65825;SDS011;52586;-43.152;172.732;2022-10-23T05:29:57;2.75;;;0.90;;
65825;SDS011;52586;-43.152;172.732;2022-10-23T05:32:30;1.73;;;0.77;;
65825;SDS011;52586;-43.152;172.732;2022-10-23T05:35:02;2.90;;;0.90;;
65825;SDS011;52586;-43.152;172.732;2022-10-23T05:37:36;2.05;;;0.85;;
65825;SDS011;52586;-43.152;172.732;2022-10-23T05:40:09;1.30;;;0.80;;
65825;SDS011;52586;-43.152;172.732;2022-10-23T05:42:41;1.92;;;0.80;;
65825;SDS011;52586;-43.152;172.732;2022-10-23T05:45:11;2.00;;;0.70;;
65825;SDS011;52586;-43.152;172.732;2022-10-23T05:47:44;1.75;;;0.93;;
65825;SDS011;52586;-43.152;172.732;2022-10-23T05:50:16;2.58;;;0.73;;
65825;SDS011;52586;-43.152;172.732;2022-10-23T05:52:47;2.65;;;1.08;;
65825;SDS011;52586;-43.152;172.732;2022-10-23T05:55:17;1.58;;;0.80;;
65825;SDS011;52586;-43.152;172.732;2022-10-23T05:57:48;2.35;;;0.80;;
65825;SDS011;52586;-43.152;172.732;2022-10-23T06:00:18;1.67;;;0.65;;
65825;SDS011;52586;-43.152;172.732;2022-10-23T06:02:51;1.10;;;0.65;;
65825;SDS011;52586;-43.152;172.732;2022-10-23T06:05:22;1.40;;;0.80;;
65825;SDS011;52586;-43.152;172.732;2022-10-23T06:07:56;1.27;;;0.65;;
65825;SDS011;52586;-43.152;172.732;2022-10-23T06:10:27;1.38;;;0.57;;
65825;SDS011;52586;-43.152;172.732;2022-10-23T06:12:59;1.40;;;0.63;;
65825;SDS011;52586;-43.152;172.732;2022-10-23T06:15:29;1.63;;;0.80;;
65825;SDS011;52586;-43.152;172.732;2022-10-23T06:18:02;1.90;;;0.80;;
65825;SDS011;52586;-43.152;172.732;2022-10-23T06:20:34;0.90;;;0.60;;
65825;SDS011;52586;-43.152;172.732;2022-10-23T06:23:05;2.58;;;0.90;;
65825;SDS011;52586;-43.152;172.732;2022-10-23T06:25:36;0.93;;;0.70;;
65825;SDS011;52586;-43.152;172.732;2022-10-23T06:28:07;2.15;;;1.02;;
65825;SDS011;52586;-43.152;172.732;2022-10-23T06:30:38;2.67;;;0.80;;
65825;SDS011;52586;-43.152;172.732;2022-10-23T06:33:10;3.60;;;1.15;;
65825;SDS011;52586;-43.152;172.732;2022-10-23T06:35:41;2.47;;;0.95;;
65825;SDS011;52586;-43.152;172.732;2022-10-23T06:38:12;2.50;;;0.80;;
65825;SDS011;52586;-43.152;172.732;2022-10-23T06:40:42;4.18;;;1.30;;
65825;SDS011;52586;-43.152;172.732;2022-10-23T06:43:19;4.93;;;1.00;;
65825;SDS011;52586;-43.152;172.732;2022-10-23T06:45:50;1.55;;;0.90;;
65825;SDS011;52586;-43.152;172.732;2022-10-23T06:48:22;2.80;;;0.85;;
65825;SDS011;52586;-43.152;172.732;2022-10-23T06:50:53;3.30;;;0.93;;
65825;SDS011;52586;-43.152;172.732;2022-10-23T06:53:24;2.40;;;0.82;;
65825;SDS011;52586;-43.152;172.732;2022-10-23T06:55:57;1.92;;;0.80;;
65825;SDS011;52586;-43.152;172.732;2022-10-23T06:58:28;1.85;;;0.60;;
65825;SDS011;52586;-43.152;172.732;2022-10-23T07:00:59;4.07;;;0.70;;
65825;SDS011;52586;-43.152;172.732;2022-10-23T07:03:32;2.08;;;0.80;;
65825;SDS011;52586;-43.152;172.732;2022-10-23T07:06:03;1.80;;;0.90;;
65825;SDS011;52586;-43.152;172.732;2022-10-23T07:08:35;2.88;;;0.90;;
65825;SDS011;52586;-43.152;172.732;2022-10-23T07:11:06;1.90;;;0.70;;
65825;SDS011;52586;-43.152;172.732;2022-10-23T07:13:38;1.25;;;0.60;;
65825;SDS011;52586;-43.152;172.732;2022-10-23T07:16:10;2.58;;;0.90;;
65825;SDS011;52586;-43.152;172.732;2022-10-23T07:18:44;1.55;;;0.80;;
65825;SDS011;52586;-43.152;172.732;2022-10-23T07:21:15;2.03;;;0.55;;
65825;SDS011;52586;-43.152;172.732;2022-10-23T07:23:45;1.42;;;0.70;;
65825;SDS011;52586;-43.152;172.732;2022-10-23T07:26:16;3.22;;;0.50;;
65825;SDS011;52586;-43.152;172.732;2022-10-23T07:28:47;2.70;;;0.80;;
65825;SDS011;52586;-43.152;172.732;2022-10-23T07:31:20;2.83;;;0.90;;
65825;SDS011;52586;-43.152;172.732;2022-10-23T07:33:53;4.32;;;0.82;;
65825;SDS011;52586;-43.152;172.732;2022-10-23T07:36:24;2.50;;;0.70;;
65825;SDS011;52586;-43.152;172.732;2022-10-23T07:38:54;1.25;;;0.60;;
65825;SDS011;52586;-43.152;172.732;2022-10-23T07:41:25;1.67;;;0.70;;
65825;SDS011;52586;-43.152;172.732;2022-10-23T07:43:56;2.08;;;0.70;;
65825;SDS011;52586;-43.152;172.732;2022-10-23T07:46:27;1.35;;;0.68;;
65825;SDS011;52586;-43.152;172.732;2022-10-23T07:48:59;1.13;;;0.70;;
65825;SDS011;52586;-43.152;172.732;2022-10-23T07:51:30;2.22;;;0.88;;
65825;SDS011;52586;-43.152;172.732;2022-10-23T07:54:00;1.33;;;0.77;;
65825;SDS011;52586;-43.152;172.732;2022-10-23T07:56:31;1.55;;;0.60;;
65825;SDS011;52586;-43.152;172.732;2022-10-23T07:59:02;1.48;;;0.77;;
65825;SDS011;52586;-43.152;172.732;2022-10-23T08:01:33;0.95;;;0.77;;
65825;SDS011;52586;-43.152;172.732;2022-10-23T08:04:08;0.98;;;0.50;;
65825;SDS011;52586;-43.152;172.732;2022-10-23T08:06:39;3.78;;;0.80;;
65825;SDS011;52586;-43.152;172.732;2022-10-23T08:09:10;1.35;;;0.70;;
65825;SDS011;52586;-43.152;172.732;2022-10-23T08:11:40;1.73;;;0.65;;
65825;SDS011;52586;-43.152;172.732;2022-10-23T08:14:11;1.65;;;0.65;;
65825;SDS011;52586;-43.152;172.732;2022-10-23T08:16:42;3.45;;;0.52;;
65825;SDS011;52586;-43.152;172.732;2022-10-23T08:19:14;2.25;;;0.65;;
65825;SDS011;52586;-43.152;172.732;2022-10-23T08:21:45;2.05;;;0.50;;
65825;SDS011;52586;-43.152;172.732;2022-10-23T08:24:19;1.05;;;0.50;;
65825;SDS011;52586;-43.152;172.732;2022-10-23T08:26:50;2.35;;;0.70;;
65825;SDS011;52586;-43.152;172.732;2022-10-23T08:29:21;3.88;;;0.82;;
65825;SDS011;52586;-43.152;172.732;2022-10-23T08:31:52;1.30;;;0.60;;
65825;SDS011;52586;-43.152;172.732;2022-10-23T08:34:25;2.15;;;0.70;;
65825;SDS011;52586;-43.152;172.732;2022-10-23T08:36:58;2.67;;;0.85;;
65825;SDS011;52586;-43.152;172.732;2022-10-23T08:39:29;2.05;;;0.70;;
65825;SDS011;52586;-43.152;172.732;2022-10-23T08:41:59;1.50;;;0.70;;
65825;SDS011;52586;-43.152;172.732;2022-10-23T08:44:31;2.60;;;0.75;;
65825;SDS011;52586;-43.152;172.732;2022-10-23T08:47:07;1.15;;;0.70;;
65825;SDS011;52586;-43.152;172.732;2022-10-23T08:49:44;1.05;;;0.75;;
65825;SDS011;52586;-43.152;172.732;2022-10-23T08:52:19;1.30;;;0.55;;
65825;SDS011;52586;-43.152;172.732;2022-10-23T08:54:59;2.40;;;0.80;;
65825;SDS011;52586;-43.152;172.732;2022-10-23T08:57:36;4.05;;;1.00;;
65825;SDS011;52586;-43.152;172.732;2022-10-23T09:00:12;3.50;;;0.88;;
65825;SDS011;52586;-43.152;172.732;2022-10-23T09:02:44;1.20;;;0.70;;
65825;SDS011;52586;-43.152;172.732;2022-10-23T09:05:18;3.55;;;1.00;;
65825;SDS011;52586;-43.152;172.732;2022-10-23T09:07:58;2.08;;;0.80;;
65825;SDS011;52586;-43.152;172.732;2022-10-23T09:10:44;1.55;;;0.70;;
65825;SDS011;52586;-43.152;172.732;2022-10-23T09:16:35;1.83;;;0.80;;
65825;SDS011;52586;-43.152;172.732;2022-10-23T09:19:21;2.63;;;0.70;;
65825;SDS011;52586;-43.152;172.732;2022-10-23T09:21:56;1.38;;;0.65;;
65825;SDS011;52586;-43.152;172.732;2022-10-23T09:24:27;1.95;;;0.80;;
65825;SDS011;52586;-43.152;172.732;2022-10-23T09:26:59;2.20;;;0.60;;
65825;SDS011;52586;-43.152;172.732;2022-10-23T09:29:30;1.73;;;0.82;;
65825;SDS011;52586;-43.152;172.732;2022-10-23T09:32:03;2.05;;;0.70;;
65825;SDS011;52586;-43.152;172.732;2022-10-23T09:34:34;2.42;;;0.75;;
65825;SDS011;52586;-43.152;172.732;2022-10-23T09:37:19;1.67;;;0.70;;
65825;SDS011;52586;-43.152;172.732;2022-10-23T09:42:51;2.22;;;0.93;;
65825;SDS011;52586;-43.152;172.732;2022-10-23T09:45:24;1.98;;;0.80;;
65825;SDS011;52586;-43.152;172.732;2022-10-23T09:48:07;2.50;;;0.80;;
65825;SDS011;52586;-43.152;172.732;2022-10-23T09:50:47;3.17;;;1.00;;
65825;SDS011;52586;-43.152;172.732;2022-10-23T09:53:24;1.00;;;0.65;;
65825;SDS011;52586;-43.152;172.732;2022-10-23T09:56:00;2.10;;;0.90;;
65825;SDS011;52586;-43.152;172.732;2022-10-23T09:58:33;1.88;;;0.70;;
65825;SDS011;52586;-43.152;172.732;2022-10-23T10:01:20;2.13;;;0.85;;
65825;SDS011;52586;-43.152;172.732;2022-10-23T10:03:52;3.47;;;1.00;;
65825;SDS011;52586;-43.152;172.732;2022-10-23T10:06:23;2.00;;;0.60;;
65825;SDS011;52586;-43.152;172.732;2022-10-23T10:08:57;2.00;;;1.08;;
65825;SDS011;52586;-43.152;172.732;2022-10-23T10:11:32;1.45;;;0.85;;
65825;SDS011;52586;-43.152;172.732;2022-10-23T10:14:17;2.15;;;0.70;;
65825;SDS011;52586;-43.152;172.732;2022-10-23T10:17:12;2.33;;;0.73;;
65825;SDS011;52586;-43.152;172.732;2022-10-23T10:19:55;2.60;;;0.95;;
65825;SDS011;52586;-43.152;172.732;2022-10-23T10:22:37;2.15;;;0.82;;
65825;SDS011;52586;-43.152;172.732;2022-10-23T10:25:13;2.58;;;1.08;;
65825;SDS011;52586;-43.152;172.732;2022-10-23T10:27:53;3.40;;;1.15;;
65825;SDS011;52586;-43.152;172.732;2022-10-23T10:30:31;2.58;;;1.00;;
65825;SDS011;52586;-43.152;172.732;2022-10-23T10:33:11;2.05;;;0.70;;
65825;SDS011;52586;-43.152;172.732;2022-10-23T10:35:47;2.08;;;0.70;;
65825;SDS011;52586;-43.152;172.732;2022-10-23T10:38:25;1.95;;;0.77;;
65825;SDS011;52586;-43.152;172.732;2022-10-23T10:41:29;2.25;;;0.80;;
65825;SDS011;52586;-43.152;172.732;2022-10-23T10:47:19;4.43;;;1.20;;
65825;SDS011;52586;-43.152;172.732;2022-10-23T10:49:58;3.22;;;1.00;;
65825;SDS011;52586;-43.152;172.732;2022-10-23T10:52:38;3.25;;;1.02;;
65825;SDS011;52586;-43.152;172.732;2022-10-23T10:55:16;2.63;;;1.05;;
65825;SDS011;52586;-43.152;172.732;2022-10-23T10:57:51;3.67;;;0.90;;
65825;SDS011;52586;-43.152;172.732;2022-10-23T11:00:26;3.10;;;1.00;;
65825;SDS011;52586;-43.152;172.732;2022-10-23T11:02:59;2.45;;;1.10;;
65825;SDS011;52586;-43.152;172.732;2022-10-23T11:05:34;2.80;;;0.93;;
65825;SDS011;52586;-43.152;172.732;2022-10-23T11:08:10;2.45;;;0.90;;
65825;SDS011;52586;-43.152;172.732;2022-10-23T11:10:43;3.22;;;1.08;;
65825;SDS011;52586;-43.152;172.732;2022-10-23T11:13:21;2.75;;;1.00;;
65825;SDS011;52586;-43.152;172.732;2022-10-23T11:15:55;1.80;;;0.80;;
65825;SDS011;52586;-43.152;172.732;2022-10-23T11:18:28;3.30;;;1.25;;
65825;SDS011;52586;-43.152;172.732;2022-10-23T11:21:04;2.72;;;0.88;;
65825;SDS011;52586;-43.152;172.732;2022-10-23T11:27:05;2.88;;;1.38;;
65825;SDS011;52586;-43.152;172.732;2022-10-23T11:30:07;2.35;;;0.93;;
65825;SDS011;52586;-43.152;172.732;2022-10-23T11:35:52;2.10;;;1.17;;
65825;SDS011;52586;-43.152;172.732;2022-10-23T11:38:28;2.60;;;1.08;;
65825;SDS011;52586;-43.152;172.732;2022-10-23T11:41:03;2.75;;;1.05;;
65825;SDS011;52586;-43.152;172.732;2022-10-23T11:43:48;2.10;;;0.88;;
65825;SDS011;52586;-43.152;172.732;2022-10-23T11:46:32;2.25;;;0.73;;
65825;SDS011;52586;-43.152;172.732;2022-10-23T11:49:03;1.98;;;0.93;;
65825;SDS011;52586;-43.152;172.732;2022-10-23T11:51:47;2.10;;;0.90;;
65825;SDS011;52586;-43.152;172.732;2022-10-23T11:54:29;2.80;;;0.75;;
65825;SDS011;52586;-43.152;172.732;2022-10-23T11:59:51;2.90;;;0.80;;
65825;SDS011;52586;-43.152;172.732;2022-10-23T12:02:34;2.70;;;1.10;;
65825;SDS011;52586;-43.152;172.732;2022-10-23T12:05:06;1.25;;;0.85;;
65825;SDS011;52586;-43.152;172.732;2022-10-23T12:07:53;2.42;;;0.95;;
65825;SDS011;52586;-43.152;172.732;2022-10-23T12:10:26;1.13;;;0.60;;
65825;SDS011;52586;-43.152;172.732;2022-10-23T12:13:00;1.45;;;0.88;;
65825;SDS011;52586;-43.152;172.732;2022-10-23T12:15:32;1.38;;;0.80;;
65825;SDS011;52586;-43.152;172.732;2022-10-23T12:18:14;1.45;;;0.60;;
65825;SDS011;52586;-43.152;172.732;2022-10-23T12:20:46;2.35;;;1.00;;
65825;SDS011;52586;-43.152;172.732;2022-10-23T12:23:25;1.52;;;0.75;;
65825;SDS011;52586;-43.152;172.732;2022-10-23T12:29:19;2.47;;;0.98;;
65825;SDS011;52586;-43.152;172.732;2022-10-23T12:31:57;0.93;;;0.73;;
65825;SDS011;52586;-43.152;172.732;2022-10-23T12:34:38;1.98;;;0.82;;
65825;SDS011;52586;-43.152;172.732;2022-10-23T12:37:21;2.92;;;0.70;;
65825;SDS011;52586;-43.152;172.732;2022-10-23T12:40:05;1.25;;;0.70;;
65825;SDS011;52586;-43.152;172.732;2022-10-23T12:42:37;1.33;;;0.60;;
65825;SDS011;52586;-43.152;172.732;2022-10-23T12:45:14;1.98;;;0.80;;
65825;SDS011;52586;-43.152;172.732;2022-10-23T12:47:46;1.70;;;0.60;;
65825;SDS011;52586;-43.152;172.732;2022-10-23T12:50:20;1.10;;;0.65;;
65825;SDS011;52586;-43.152;172.732;2022-10-23T12:52:53;2.47;;;0.93;;
65825;SDS011;52586;-43.152;172.732;2022-10-23T12:55:26;1.77;;;0.80;;
65825;SDS011;52586;-43.152;172.732;2022-10-23T12:57:59;0.98;;;0.50;;
65825;SDS011;52586;-43.152;172.732;2022-10-23T13:00:30;1.67;;;0.70;;
65825;SDS011;52586;-43.152;172.732;2022-10-23T13:03:01;1.50;;;0.68;;
65825;SDS011;52586;-43.152;172.732;2022-10-23T13:05:34;1.65;;;0.70;;
65825;SDS011;52586;-43.152;172.732;2022-10-23T13:08:05;0.90;;;0.70;;
65825;SDS011;52586;-43.152;172.732;2022-10-23T13:10:37;1.30;;;0.80;;
65825;SDS011;52586;-43.152;172.732;2022-10-23T13:13:09;2.80;;;0.80;;
65825;SDS011;52586;-43.152;172.732;2022-10-23T13:15:42;1.80;;;0.80;;
65825;SDS011;52586;-43.152;172.732;2022-10-23T13:18:13;2.20;;;0.60;;
65825;SDS011;52586;-43.152;172.732;2022-10-23T13:20:56;1.20;;;0.73;;
65825;SDS011;52586;-43.152;172.732;2022-10-23T13:23:28;1.13;;;0.77;;
65825;SDS011;52586;-43.152;172.732;2022-10-23T13:26:00;1.15;;;0.73;;
65825;SDS011;52586;-43.152;172.732;2022-10-23T13:28:32;2.20;;;0.80;;
65825;SDS011;52586;-43.152;172.732;2022-10-23T13:31:23;0.88;;;0.57;;
65825;SDS011;52586;-43.152;172.732;2022-10-23T13:36:52;1.10;;;0.75;;
65825;SDS011;52586;-43.152;172.732;2022-10-23T13:39:24;1.10;;;0.70;;
65825;SDS011;52586;-43.152;172.732;2022-10-23T13:41:58;1.35;;;0.50;;
65825;SDS011;52586;-43.152;172.732;2022-10-23T13:44:38;1.77;;;0.82;;
65825;SDS011;52586;-43.152;172.732;2022-10-23T13:47:10;2.40;;;0.85;;
65825;SDS011;52586;-43.152;172.732;2022-10-23T13:49:42;0.98;;;0.55;;
65825;SDS011;52586;-43.152;172.732;2022-10-23T13:52:15;1.08;;;0.68;;
65825;SDS011;52586;-43.152;172.732;2022-10-23T13:54:48;1.55;;;0.60;;
65825;SDS011;52586;-43.152;172.732;2022-10-23T13:57:19;1.13;;;0.55;;
65825;SDS011;52586;-43.152;172.732;2022-10-23T13:59:50;1.90;;;0.80;;
65825;SDS011;52586;-43.152;172.732;2022-10-23T14:02:21;2.03;;;0.70;;
65825;SDS011;52586;-43.152;172.732;2022-10-23T14:04:52;1.08;;;0.60;;
65825;SDS011;52586;-43.152;172.732;2022-10-23T14:07:24;1.55;;;0.73;;
65825;SDS011;52586;-43.152;172.732;2022-10-23T14:09:55;2.17;;;0.75;;
65825;SDS011;52586;-43.152;172.732;2022-10-23T14:12:25;1.90;;;0.75;;
65825;SDS011;52586;-43.152;172.732;2022-10-23T14:14:56;1.20;;;0.50;;
65825;SDS011;52586;-43.152;172.732;2022-10-23T14:17:27;0.40;;;0.40;;
65825;SDS011;52586;-43.152;172.732;2022-10-23T14:19:57;1.05;;;0.68;;
65825;SDS011;52586;-43.152;172.732;2022-10-23T14:22:30;1.00;;;0.60;;
65825;SDS011;52586;-43.152;172.732;2022-10-23T14:25:00;0.70;;;0.45;;
65825;SDS011;52586;-43.152;172.732;2022-10-23T14:27:31;1.33;;;0.60;;
65825;SDS011;52586;-43.152;172.732;2022-10-23T14:30:02;1.48;;;0.63;;
65825;SDS011;52586;-43.152;172.732;2022-10-23T14:32:33;0.90;;;0.68;;
65825;SDS011;52586;-43.152;172.732;2022-10-23T14:35:04;1.60;;;0.60;;
65825;SDS011;52586;-43.152;172.732;2022-10-23T14:37:37;1.23;;;0.60;;
65825;SDS011;52586;-43.152;172.732;2022-10-23T14:40:07;0.85;;;0.60;;
65825;SDS011;52586;-43.152;172.732;2022-10-23T14:42:38;0.93;;;0.52;;
65825;SDS011;52586;-43.152;172.732;2022-10-23T14:45:09;1.35;;;0.70;;
65825;SDS011;52586;-43.152;172.732;2022-10-23T14:47:40;0.57;;;0.40;;
65825;SDS011;52586;-43.152;172.732;2022-10-23T14:50:11;1.05;;;0.60;;
65825;SDS011;52586;-43.152;172.732;2022-10-23T14:52:44;1.65;;;0.70;;
65825;SDS011;52586;-43.152;172.732;2022-10-23T14:55:15;1.25;;;0.52;;
65825;SDS011;52586;-43.152;172.732;2022-10-23T14:57:46;0.73;;;0.50;;
65825;SDS011;52586;-43.152;172.732;2022-10-23T15:00:16;1.50;;;0.77;;
65825;SDS011;52586;-43.152;172.732;2022-10-23T15:02:47;1.38;;;0.80;;
65825;SDS011;52586;-43.152;172.732;2022-10-23T15:05:18;0.65;;;0.50;;
65825;SDS011;52586;-43.152;172.732;2022-10-23T15:07:50;0.68;;;0.50;;
65825;SDS011;52586;-43.152;172.732;2022-10-23T15:10:23;1.05;;;0.70;;
65825;SDS011;52586;-43.152;172.732;2022-10-23T15:12:54;0.77;;;0.57;;